Time;durP1;ratioP1;P1;durP2;ratioP2;P2;SDS_P1;SDS_P2;PMS_P1;PMS_P2;Temp;Humidity;BMP_temperature;BMP_pressure;BME280_temperature;BME280_humidity;BME280_pressure;Samples;Min_cycle;Max_cycle;Signal;HPM_P1;HPM_P2
2022/08/31 01:42:10;;;;;;;14.73;7.90;;;;;;;;;;6145607;22;1324214;-88
2022/08/31 01:45:16;;;;;;;14.68;8.10;;;;;;;;;;6233643;23;20166;-87
2022/08/31 01:48:21;;;;;;;15.00;7.80;;;;;;;;;;6236184;23;20170;-88
2022/08/31 01:51:26;;;;;;;12.98;7.60;;;;;;;;;;6236155;23;20166;-87
2022/08/31 01:54:32;;;;;;;17.42;9.10;;;;;;;;;;6234255;23;20185;-85
2022/08/31 01:57:39;;;;;;;24.40;9.65;;;;;;;;;;6235720;23;20166;-89
2022/08/31 02:01:02;;;;;;;19.77;9.93;;;;;;;;;;6236122;22;20487;-87
2022/08/31 02:04:08;;;;;;;14.05;8.75;;;;;;;;;;6235979;23;20202;-86
2022/08/31 02:07:13;;;;;;;25.52;9.68;;;;;;;;;;6235013;23;20277;-88
2022/08/31 02:10:18;;;;;;;13.65;8.85;;;;;;;;;;6233545;23;20178;-88
2022/08/31 02:13:25;;;;;;;17.42;9.07;;;;;;;;;;6234720;22;20154;-88
2022/08/31 02:16:29;;;;;;;14.73;8.80;;;;;;;;;;6235279;22;20251;-87
2022/08/31 02:19:34;;;;;;;22.10;9.23;;;;;;;;;;6235953;23;20622;-87
2022/08/31 02:22:40;;;;;;;16.98;9.00;;;;;;;;;;6236357;23;20198;-87
2022/08/31 02:25:47;;;;;;;21.67;9.75;;;;;;;;;;6235442;23;20174;-86
2022/08/31 02:28:57;;;;;;;19.58;9.85;;;;;;;;;;6254360;22;20249;-87
2022/08/31 02:32:03;;;;;;;19.77;10.10;;;;;;;;;;6254667;22;20510;-87
2022/08/31 02:35:08;;;;;;;15.57;9.90;;;;;;;;;;6235131;23;20602;-87
2022/08/31 02:38:14;;;;;;;17.52;9.38;;;;;;;;;;6235362;23;20163;-89
2022/08/31 02:41:19;;;;;;;16.80;9.43;;;;;;;;;;6233731;23;20165;-87
2022/08/31 02:44:25;;;;;;;16.55;8.63;;;;;;;;;;6234451;23;20171;-87
2022/08/31 02:51:12;;;;;;;18.60;9.55;;;;;;;;;;6235674;23;20166;-87
2022/08/31 02:54:18;;;;;;;19.77;9.38;;;;;;;;;;6235077;23;20190;-88
2022/08/31 02:57:24;;;;;;;19.55;9.05;;;;;;;;;;6234177;22;20166;-88
2022/08/31 03:00:32;;;;;;;18.70;8.88;;;;;;;;;;6234881;22;20214;-87
2022/08/31 03:03:37;;;;;;;18.70;9.32;;;;;;;;;;6234418;22;20194;-89
2022/08/31 03:06:42;;;;;;;17.85;9.32;;;;;;;;;;6235762;23;20166;-88
2022/08/31 03:09:48;;;;;;;17.75;8.85;;;;;;;;;;6235662;23;20166;-87
2022/08/31 03:12:53;;;;;;;16.85;8.23;;;;;;;;;;6232925;23;20217;-87
2022/08/31 03:16:00;;;;;;;18.05;9.02;;;;;;;;;;6235055;23;20157;-87
2022/08/31 03:19:05;;;;;;;17.70;9.00;;;;;;;;;;6233596;23;20168;-87
2022/08/31 03:22:12;;;;;;;21.02;9.23;;;;;;;;;;6233217;23;20244;-87
2022/08/31 03:25:17;;;;;;;18.08;9.32;;;;;;;;;;6233858;23;20190;-88
2022/08/31 03:28:22;;;;;;;19.25;9.00;;;;;;;;;;6232907;23;20178;-86
2022/08/31 03:31:47;;;;;;;22.35;8.48;;;;;;;;;;6233995;22;20170;-88
2022/08/31 03:34:54;;;;;;;18.17;9.68;;;;;;;;;;6233429;22;20534;-86
2022/08/31 03:38:00;;;;;;;15.07;8.70;;;;;;;;;;6234860;23;20166;-88
2022/08/31 03:41:06;;;;;;;17.02;9.63;;;;;;;;;;6234608;23;20170;-87
2022/08/31 03:44:13;;;;;;;22.42;10.95;;;;;;;;;;6232378;23;20167;-88
2022/08/31 03:47:22;;;;;;;18.23;9.68;;;;;;;;;;6234432;22;20151;-86
2022/08/31 03:50:28;;;;;;;19.45;10.57;;;;;;;;;;6236941;22;20595;-88
2022/08/31 03:53:45;;;;;;;18.77;10.52;;;;;;;;;;6237441;23;20166;-87
2022/08/31 03:56:56;;;;;;;19.20;9.27;;;;;;;;;;6236671;23;20206;-87
2022/08/31 04:00:01;;;;;;;17.70;9.82;;;;;;;;;;6237039;23;20230;-87
2022/08/31 04:03:24;;;;;;;20.42;9.95;;;;;;;;;;6255268;23;20274;-88
2022/08/31 04:06:48;;;;;;;18.42;9.20;;;;;;;;;;6255366;22;20236;-86
2022/08/31 04:10:13;;;;;;;19.35;9.65;;;;;;;;;;6256322;22;20205;-88
2022/08/31 04:13:41;;;;;;;18.83;9.63;;;;;;;;;;6254703;23;20166;-89
2022/08/31 04:17:05;;;;;;;18.20;9.57;;;;;;;;;;6255145;23;20175;-87
2022/08/31 04:20:21;;;;;;;19.13;9.23;;;;;;;;;;6237229;23;20185;-87
2022/08/31 04:23:28;;;;;;;17.48;9.35;;;;;;;;;;6234174;23;20202;-87
2022/08/31 04:26:36;;;;;;;20.83;9.80;;;;;;;;;;6236352;23;20622;-86
2022/08/31 04:29:41;;;;;;;14.63;9.40;;;;;;;;;;6237271;22;20174;-87
2022/08/31 04:32:46;;;;;;;16.58;9.15;;;;;;;;;;6237793;23;20217;-88
2022/08/31 04:35:53;;;;;;;18.70;10.00;;;;;;;;;;6237545;23;20633;-86
2022/08/31 04:38:59;;;;;;;14.10;8.68;;;;;;;;;;6254316;22;20159;-86
2022/08/31 04:42:04;;;;;;;22.75;9.82;;;;;;;;;;6237347;23;20169;-85
2022/08/31 04:45:12;;;;;;;16.90;9.38;;;;;;;;;;6237993;23;20189;-88
2022/08/31 04:48:25;;;;;;;24.13;10.00;;;;;;;;;;6239050;23;20170;-86
2022/08/31 04:51:34;;;;;;;15.07;9.02;;;;;;;;;;6238173;23;20233;-85
2022/08/31 04:54:39;;;;;;;16.95;8.35;;;;;;;;;;6236940;23;20234;-86
2022/08/31 04:57:45;;;;;;;18.25;8.63;;;;;;;;;;6238433;22;20169;-87
2022/08/31 05:00:51;;;;;;;15.27;8.23;;;;;;;;;;6238702;22;20162;-88
2022/08/31 05:04:16;;;;;;;14.57;8.27;;;;;;;;;;6259645;22;20198;-87
2022/08/31 05:07:23;;;;;;;18.13;9.30;;;;;;;;;;6239416;23;20166;-88
2022/08/31 05:10:28;;;;;;;19.02;9.13;;;;;;;;;;6238198;23;20170;-88
2022/08/31 05:13:33;;;;;;;14.52;8.68;;;;;;;;;;6236859;23;20182;-87
2022/08/31 05:16:41;;;;;;;20.63;9.10;;;;;;;;;;6247638;22;20158;-87
2022/08/31 05:19:52;;;;;;;17.67;8.82;;;;;;;;;;6261572;23;20171;-87
2022/08/31 05:22:58;;;;;;;17.88;8.82;;;;;;;;;;6242557;23;20625;-87
2022/08/31 05:26:04;;;;;;;17.63;8.32;;;;;;;;;;6242105;23;20162;-87
2022/08/31 05:29:10;;;;;;;16.08;8.05;;;;;;;;;;6240199;22;20158;-91
2022/08/31 05:32:16;;;;;;;14.48;7.60;;;;;;;;;;6240644;22;20286;-88
2022/08/31 05:35:21;;;;;;;15.05;8.38;;;;;;;;;;6239492;23;20309;-89
2022/08/31 05:38:28;;;;;;;16.98;8.02;;;;;;;;;;6239241;23;20170;-87
2022/08/31 05:41:33;;;;;;;18.98;9.02;;;;;;;;;;6238394;23;20700;-88
2022/08/31 05:44:38;;;;;;;16.70;7.97;;;;;;;;;;6239378;22;20182;-89
2022/08/31 05:48:08;;;;;;;18.10;9.15;;;;;;;;;;6237546;22;20506;-88
2022/08/31 05:51:17;;;;;;;16.85;8.65;;;;;;;;;;6239176;23;20502;-90
2022/08/31 05:54:23;;;;;;;14.05;8.23;;;;;;;;;;6236068;23;20166;-87
2022/08/31 05:57:29;;;;;;;26.48;8.75;;;;;;;;;;6236182;23;20217;-85
2022/08/31 06:00:36;;;;;;;16.83;7.88;;;;;;;;;;6239737;22;20232;-89
2022/08/31 06:04:01;;;;;;;16.85;8.38;;;;;;;;;;6255927;23;20198;-88
2022/08/31 06:07:08;;;;;;;15.02;7.90;;;;;;;;;;6239287;23;20206;-89
2022/08/31 06:10:21;;;;;;;21.05;8.07;;;;;;;;;;6236450;23;20159;-87
2022/08/31 06:13:26;;;;;;;13.38;7.30;;;;;;;;;;6237892;22;20157;-89
2022/08/31 06:16:32;;;;;;;14.57;8.50;;;;;;;;;;6238524;22;20178;-89
2022/08/31 06:19:37;;;;;;;17.00;7.72;;;;;;;;;;6239464;23;20213;-90
2022/08/31 06:22:45;;;;;;;15.73;8.43;;;;;;;;;;6239168;23;20273;-89
2022/08/31 06:26:06;;;;;;;18.63;8.88;;;;;;;;;;6237144;23;20163;-87
2022/08/31 06:29:11;;;;;;;17.75;9.02;;;;;;;;;;6239082;22;20155;-90
2022/08/31 06:32:16;;;;;;;16.25;9.07;;;;;;;;;;6240282;22;20242;-89
2022/08/31 06:35:34;;;;;;;15.52;8.48;;;;;;;;;;6241647;23;20170;-86
2022/08/31 06:39:00;;;;;;;21.85;9.57;;;;;;;;;;6260512;22;20224;-90
2022/08/31 06:42:14;;;;;;;19.92;7.57;;;;;;;;;;6238731;22;20170;-86
2022/08/31 06:45:38;;;;;;;18.08;8.32;;;;;;;;;;6257471;22;20186;-88
2022/08/31 06:49:16;;;;;;;14.73;8.32;;;;;;;;;;6229756;23;20298;-89
2022/08/31 06:52:23;;;;;;;18.02;8.20;;;;;;;;;;6239549;22;20154;-87
2022/08/31 06:55:43;;;;;;;14.10;7.97;;;;;;;;;;6239823;22;20247;-87
2022/08/31 06:59:09;;;;;;;17.27;7.93;;;;;;;;;;6257659;22;20257;-89
2022/08/31 07:02:43;;;;;;;14.93;8.10;;;;;;;;;;6257162;22;20174;-87
2022/08/31 07:05:49;;;;;;;14.93;8.85;;;;;;;;;;6242397;23;20189;-88
2022/08/31 07:08:56;;;;;;;16.25;7.65;;;;;;;;;;6240270;22;20622;-91
2022/08/31 07:12:03;;;;;;;16.50;8.38;;;;;;;;;;6240637;23;20166;-88
2022/08/31 07:15:10;;;;;;;19.70;7.70;;;;;;;;;;6240554;23;20220;-90
2022/08/31 07:18:15;;;;;;;14.38;7.30;;;;;;;;;;6238164;23;20174;-88
2022/08/31 07:21:22;;;;;;;14.50;7.57;;;;;;;;;;6241156;22;20151;-86
2022/08/31 07:24:29;;;;;;;10.98;6.97;;;;;;;;;;6243729;22;20471;-90
2022/08/31 07:27:34;;;;;;;13.93;7.38;;;;;;;;;;6243278;23;20614;-90
2022/08/31 07:30:41;;;;;;;14.15;6.80;;;;;;;;;;6246644;23;20182;-87
2022/08/31 07:33:49;;;;;;;21.15;6.53;;;;;;;;;;6241621;23;20202;-88
2022/08/31 07:43:42;;;;;;;15.52;6.53;;;;;;;;;;6241061;23;20239;-89
2022/08/31 07:46:54;;;;;;;16.98;7.43;;;;;;;;;;6243987;23;20237;-89
2022/08/31 07:50:01;;;;;;;23.73;9.80;;;;;;;;;;6245600;22;20170;-89
2022/08/31 07:53:16;;;;;;;12.57;7.50;;;;;;;;;;6243264;23;20162;-89
2022/08/31 07:56:30;;;;;;;15.80;7.68;;;;;;;;;;6242113;23;20209;-87
2022/08/31 08:00:07;;;;;;;17.27;7.43;;;;;;;;;;6241498;23;20163;-89
2022/08/31 08:03:20;;;;;;;16.33;7.25;;;;;;;;;;6260845;23;20194;-88
2022/08/31 08:06:45;;;;;;;14.20;6.95;;;;;;;;;;6260139;23;20622;-87
2022/08/31 08:10:16;;;;;;;18.35;10.65;;;;;;;;;;6258985;22;20290;-89
2022/08/31 08:13:48;;;;;;;20.23;10.75;;;;;;;;;;6252430;22;20186;-89
2022/08/31 08:16:58;;;;;;;13.07;7.32;;;;;;;;;;6243401;23;20170;-89
2022/08/31 08:20:29;;;;;;;15.63;6.88;;;;;;;;;;6259694;22;20154;-88
2022/08/31 08:23:34;;;;;;;14.50;6.80;;;;;;;;;;6237712;23;20190;-89
2022/08/31 08:27:16;;;;;;;9.27;6.00;;;;;;;;;;6242937;22;20170;-89
2022/08/31 08:30:32;;;;;;;16.30;6.47;;;;;;;;;;6240169;23;20171;-90
2022/08/31 08:33:37;;;;;;;14.98;6.22;;;;;;;;;;6239458;23;20166;-87
2022/08/31 08:36:45;;;;;;;16.58;6.32;;;;;;;;;;6239852;23;20178;-89
2022/08/31 08:39:50;;;;;;;11.68;6.00;;;;;;;;;;6242150;22;20186;-91
2022/08/31 08:42:58;;;;;;;12.60;5.75;;;;;;;;;;6240744;22;20286;-87
2022/08/31 08:46:07;;;;;;;15.98;6.28;;;;;;;;;;6242761;23;20170;-88
2022/08/31 08:49:18;;;;;;;11.75;6.30;;;;;;;;;;6241511;23;20237;-89
2022/08/31 08:52:31;;;;;;;13.52;6.03;;;;;;;;;;6240673;23;20151;-87
2022/08/31 08:55:39;;;;;;;14.07;5.85;;;;;;;;;;6243516;22;20171;-89
2022/08/31 08:58:45;;;;;;;11.02;5.57;;;;;;;;;;6241747;22;20424;-88
2022/08/31 09:01:52;;;;;;;13.00;6.30;;;;;;;;;;6257833;22;20591;-88
2022/08/31 09:05:08;;;;;;;11.18;5.30;;;;;;;;;;6239538;23;20198;-90
2022/08/31 09:08:47;;;;;;;12.23;5.63;;;;;;;;;;6240048;22;20174;-89
2022/08/31 09:12:01;;;;;;;11.65;5.47;;;;;;;;;;6239592;23;20166;-90
2022/08/31 09:15:26;;;;;;;13.00;6.30;;;;;;;;;;6239426;23;20237;-88
2022/08/31 09:18:42;;;;;;;15.13;6.18;;;;;;;;;;6237557;23;20159;-88
2022/08/31 09:21:48;;;;;;;11.40;6.20;;;;;;;;;;6240965;23;20162;-87
2022/08/31 09:24:58;;;;;;;10.93;5.55;;;;;;;;;;6238566;23;20201;-90
2022/08/31 09:28:34;;;;;;;9.05;4.70;;;;;;;;;;6258663;23;20194;-89
2022/08/31 09:31:40;;;;;;;9.45;4.93;;;;;;;;;;6239644;23;20246;-88
2022/08/31 09:34:52;;;;;;;12.02;5.88;;;;;;;;;;6239392;22;20171;-88
2022/08/31 09:38:02;;;;;;;18.35;5.70;;;;;;;;;;6239587;23;20165;-90
2022/08/31 09:41:20;;;;;;;10.02;4.97;;;;;;;;;;6241105;23;20613;-90
2022/08/31 13:39:02;;;;;;;20.60;10.60;;;;;;;;;;6171352;23;20242;-89
2022/08/31 13:42:09;;;;;;;19.38;11.80;;;;;;;;;;6154636;23;20620;-88
2022/08/31 13:45:25;;;;;;;19.77;12.65;;;;;;;;;;6151017;23;20269;-88
2022/08/31 13:48:31;;;;;;;20.33;11.63;;;;;;;;;;6154546;23;20202;-87
2022/08/31 13:51:39;;;;;;;20.90;11.77;;;;;;;;;;6151425;23;20172;-89
2022/08/31 13:54:57;;;;;;;20.48;12.10;;;;;;;;;;6154380;23;20262;-89
2022/08/31 13:58:04;;;;;;;20.23;11.38;;;;;;;;;;6151765;23;20172;-89
2022/08/31 14:01:20;;;;;;;22.80;11.75;;;;;;;;;;6153379;23;20285;-88
2022/08/31 14:04:42;;;;;;;18.00;11.30;;;;;;;;;;6171266;23;20260;-87
2022/08/31 14:08:01;;;;;;;23.10;13.07;;;;;;;;;;6153638;23;20174;-88
2022/08/31 14:11:12;;;;;;;21.40;11.02;;;;;;;;;;6153266;23;20693;-89
2022/08/31 14:14:38;;;;;;;18.65;10.68;;;;;;;;;;6152900;23;20188;-87
2022/08/31 14:17:44;;;;;;;19.42;9.85;;;;;;;;;;6149595;23;20172;-91
2022/08/31 14:20:50;;;;;;;17.20;9.77;;;;;;;;;;6152286;23;20493;-90
2022/08/31 14:24:01;;;;;;;17.60;10.13;;;;;;;;;;6167151;23;20188;-88
2022/08/31 14:27:09;;;;;;;20.00;10.85;;;;;;;;;;6152086;23;20173;-89
2022/08/31 14:30:15;;;;;;;15.93;9.70;;;;;;;;;;6155520;23;20204;-87
2022/08/31 14:33:20;;;;;;;17.42;10.20;;;;;;;;;;6165831;23;20172;-89
2022/08/31 14:36:26;;;;;;;18.90;10.70;;;;;;;;;;6150113;23;20180;-88
2022/08/31 14:39:33;;;;;;;20.85;12.90;;;;;;;;;;6150594;23;20506;-88
2022/08/31 14:42:43;;;;;;;14.63;10.63;;;;;;;;;;6154185;23;20176;-88
2022/08/31 14:46:06;;;;;;;17.17;10.45;;;;;;;;;;6152519;23;20188;-87
2022/08/31 14:49:12;;;;;;;16.70;10.00;;;;;;;;;;6151933;23;20160;-88
2022/08/31 14:52:18;;;;;;;19.25;9.68;;;;;;;;;;6150978;23;20244;-90
2022/08/31 14:55:24;;;;;;;14.23;9.88;;;;;;;;;;6169611;23;20185;-87
2022/08/31 14:58:40;;;;;;;15.90;9.75;;;;;;;;;;6170167;23;20617;-88
2022/08/31 15:01:46;;;;;;;14.10;9.27;;;;;;;;;;6151891;23;20169;-88
2022/08/31 15:04:51;;;;;;;14.93;9.57;;;;;;;;;;6169714;23;20200;-89
2022/08/31 15:07:57;;;;;;;15.30;9.27;;;;;;;;;;6170024;23;20239;-87
2022/08/31 15:11:04;;;;;;;13.45;9.27;;;;;;;;;;6168345;23;20623;-87
2022/08/31 15:14:12;;;;;;;20.38;10.23;;;;;;;;;;6169218;23;20168;-88
2022/08/31 15:17:20;;;;;;;15.38;9.95;;;;;;;;;;6150730;23;20172;-87
2022/08/31 15:20:25;;;;;;;17.88;9.85;;;;;;;;;;6167983;23;20219;-88
2022/08/31 15:23:31;;;;;;;16.45;10.60;;;;;;;;;;6171329;23;20212;-88
2022/08/31 15:26:36;;;;;;;21.20;10.27;;;;;;;;;;6151306;23;20176;-88
2022/08/31 15:29:44;;;;;;;18.00;9.85;;;;;;;;;;6150612;23;20490;-88
2022/08/31 15:32:49;;;;;;;15.55;10.48;;;;;;;;;;6169196;23;20171;-87
2022/08/31 15:36:02;;;;;;;18.02;10.43;;;;;;;;;;6149306;23;20216;-87
2022/08/31 15:39:07;;;;;;;19.58;10.82;;;;;;;;;;6138169;23;20245;-88
2022/08/31 15:42:13;;;;;;;14.90;10.18;;;;;;;;;;6138747;23;20177;-88
2022/08/31 15:45:20;;;;;;;16.73;11.25;;;;;;;;;;6137971;23;20192;-88
2022/08/31 15:48:43;;;;;;;19.48;10.90;;;;;;;;;;6138290;23;20238;-88
2022/08/31 15:51:51;;;;;;;26.42;13.07;;;;;;;;;;6141845;23;20673;-90
2022/08/31 15:54:57;;;;;;;19.42;10.38;;;;;;;;;;6138547;23;20506;-89
2022/08/31 15:58:03;;;;;;;16.27;10.10;;;;;;;;;;6142678;23;20169;-88
2022/08/31 16:01:14;;;;;;;16.50;10.45;;;;;;;;;;6144338;23;20177;-90
2022/08/31 16:04:23;;;;;;;19.77;10.32;;;;;;;;;;6139303;23;20676;-88
2022/08/31 16:07:28;;;;;;;27.80;11.43;;;;;;;;;;6140733;23;20155;-89
2022/08/31 16:10:33;;;;;;;19.55;10.80;;;;;;;;;;6139817;23;20170;-88
2022/08/31 16:13:46;;;;;;;19.83;10.77;;;;;;;;;;6139753;23;20169;-87
2022/08/31 16:16:53;;;;;;;16.80;10.82;;;;;;;;;;6137642;23;20247;-86
2022/08/31 16:19:59;;;;;;;17.80;10.35;;;;;;;;;;6139566;23;20222;-88
2022/08/31 16:23:06;;;;;;;22.52;11.35;;;;;;;;;;6138535;23;20157;-88
2022/08/31 16:26:11;;;;;;;30.05;14.90;;;;;;;;;;6140394;23;20241;-88
2022/08/31 16:29:18;;;;;;;15.65;10.23;;;;;;;;;;6139330;23;20169;-88
2022/08/31 16:32:25;;;;;;;16.67;10.85;;;;;;;;;;6138095;23;20502;-87
2022/08/31 16:35:30;;;;;;;19.92;10.48;;;;;;;;;;6139918;23;20248;-90
2022/08/31 16:38:36;;;;;;;20.10;10.75;;;;;;;;;;6164099;23;20683;-89
2022/08/31 16:41:41;;;;;;;17.38;10.38;;;;;;;;;;6169880;23;20275;-90
2022/08/31 16:44:47;;;;;;;15.70;10.02;;;;;;;;;;6167070;23;20270;-88
2022/08/31 16:51:18;;;;;;;15.60;10.10;;;;;;;;;;6167086;23;20643;-89
2022/08/31 16:54:26;;;;;;;17.02;10.50;;;;;;;;;;6166683;23;20173;-89
2022/08/31 16:57:33;;;;;;;16.95;10.13;;;;;;;;;;6168880;23;20485;-89
2022/08/31 17:00:38;;;;;;;17.08;10.02;;;;;;;;;;6170431;23;20213;-89
2022/08/31 17:03:47;;;;;;;15.60;11.02;;;;;;;;;;6169490;23;20164;-89
2022/08/31 17:06:53;;;;;;;18.90;11.25;;;;;;;;;;6168916;23;20169;-89
2022/08/31 17:10:05;;;;;;;11.85;7.10;;;;;;;;;;6168829;23;20244;-89
2022/08/31 17:13:10;;;;;;;10.00;5.80;;;;;;;;;;6170498;23;20185;-88
2022/08/31 17:16:19;;;;;;;13.48;6.28;;;;;;;;;;6169660;23;20192;-88
2022/08/31 17:19:28;;;;;;;8.93;6.22;;;;;;;;;;6170062;23;20177;-87
2022/08/31 17:22:33;;;;;;;14.13;7.40;;;;;;;;;;6168372;23;20620;-88
2022/08/31 17:25:38;;;;;;;13.68;7.20;;;;;;;;;;6169031;23;20176;-88
2022/08/31 17:28:46;;;;;;;11.77;6.80;;;;;;;;;;6168321;23;20171;-88
2022/08/31 17:31:52;;;;;;;10.80;6.43;;;;;;;;;;6169420;23;20172;-89
2022/08/31 17:35:01;;;;;;;14.25;7.10;;;;;;;;;;6169634;23;20224;-89
2022/08/31 17:38:06;;;;;;;16.17;7.95;;;;;;;;;;6167287;23;20263;-89
2022/08/31 17:41:11;;;;;;;13.25;7.88;;;;;;;;;;6169895;23;20181;-88
2022/08/31 17:44:17;;;;;;;19.48;8.80;;;;;;;;;;6168165;23;20176;-88
2022/08/31 17:47:23;;;;;;;13.75;7.40;;;;;;;;;;6168383;23;20540;-90
2022/08/31 17:50:29;;;;;;;13.80;8.32;;;;;;;;;;6167757;23;20165;-90
2022/08/31 17:53:36;;;;;;;13.63;8.75;;;;;;;;;;6168179;23;20180;-91
2022/08/31 17:56:44;;;;;;;18.45;9.27;;;;;;;;;;6169703;23;20181;-89
2022/08/31 17:59:51;;;;;;;13.52;9.02;;;;;;;;;;6169536;23;20185;-88
2022/08/31 18:03:28;;;;;;;20.52;9.45;;;;;;;;;;6170179;23;20176;-90
2022/08/31 18:06:35;;;;;;;15.65;9.68;;;;;;;;;;6170932;23;20184;-88
2022/08/31 18:09:41;;;;;;;18.42;9.02;;;;;;;;;;6168705;23;20173;-89
2022/08/31 18:12:46;;;;;;;15.10;9.32;;;;;;;;;;6169477;23;20211;-89
2022/08/31 18:15:51;;;;;;;18.50;9.73;;;;;;;;;;6168191;23;20171;-89
2022/08/31 18:18:56;;;;;;;16.92;9.80;;;;;;;;;;6168921;23;20172;-89
2022/08/31 18:22:07;;;;;;;15.25;9.77;;;;;;;;;;6170553;23;20180;-89
2022/08/31 18:25:13;;;;;;;14.27;9.55;;;;;;;;;;6167359;23;20361;-87
2022/08/31 18:28:18;;;;;;;16.08;10.07;;;;;;;;;;6167724;23;20175;-87
2022/08/31 18:31:29;;;;;;;15.02;9.18;;;;;;;;;;6167926;23;20234;-90
2022/08/31 18:34:35;;;;;;;18.50;10.43;;;;;;;;;;6167410;23;20632;-89
2022/08/31 18:37:43;;;;;;;16.85;8.68;;;;;;;;;;6166562;23;20187;-89
2022/08/31 18:47:34;;;;;;;19.98;9.27;;;;;;;;;;6168080;23;20221;-88
2022/08/31 18:50:42;;;;;;;19.05;9.00;;;;;;;;;;6168169;23;20177;-89
2022/08/31 18:53:50;;;;;;;16.52;9.75;;;;;;;;;;6167032;23;20309;-88
2022/08/31 18:56:56;;;;;;;14.15;9.05;;;;;;;;;;6165348;23;20201;-89
2022/08/31 19:00:01;;;;;;;15.07;9.32;;;;;;;;;;6168495;23;20635;-88
2022/08/31 19:03:06;;;;;;;17.90;9.23;;;;;;;;;;6166060;23;20181;-86
2022/08/31 19:06:16;;;;;;;16.95;9.27;;;;;;;;;;6167872;23;20196;-88
2022/08/31 19:09:23;;;;;;;15.77;9.48;;;;;;;;;;6166872;23;20164;-87
2022/08/31 19:12:33;;;;;;;14.57;8.93;;;;;;;;;;6166090;23;20664;-88
2022/08/31 19:16:04;;;;;;;16.17;9.88;;;;;;;;;;6164527;23;20172;-87
2022/08/31 19:19:09;;;;;;;19.27;8.75;;;;;;;;;;6166919;23;20156;-88
2022/08/31 19:22:14;;;;;;;13.45;8.68;;;;;;;;;;6166653;23;20184;-88
2022/08/31 19:25:21;;;;;;;14.93;8.52;;;;;;;;;;6166202;23;20176;-88
2022/08/31 19:28:26;;;;;;;17.08;8.40;;;;;;;;;;6166553;23;20172;-86
2022/08/31 19:31:32;;;;;;;11.23;7.95;;;;;;;;;;6167193;23;20172;-87
2022/08/31 19:34:42;;;;;;;13.95;8.27;;;;;;;;;;6166354;23;20172;-88
2022/08/31 19:37:50;;;;;;;13.85;7.70;;;;;;;;;;6164126;23;20271;-88
2022/08/31 19:40:58;;;;;;;13.18;8.27;;;;;;;;;;6165497;23;20181;-88
2022/08/31 19:44:04;;;;;;;16.15;8.20;;;;;;;;;;6168386;23;20168;-88
2022/08/31 19:47:10;;;;;;;16.92;8.93;;;;;;;;;;6165681;23;20199;-89
2022/08/31 19:50:15;;;;;;;15.30;8.40;;;;;;;;;;6168097;23;20184;-88
2022/08/31 19:53:21;;;;;;;16.35;9.07;;;;;;;;;;6164609;23;20176;-89
2022/08/31 19:56:29;;;;;;;19.45;10.48;;;;;;;;;;6165495;23;20209;-90
2022/08/31 19:59:34;;;;;;;17.70;8.82;;;;;;;;;;6164517;23;20173;-89
2022/08/31 20:02:40;;;;;;;13.90;9.05;;;;;;;;;;6164393;23;20173;-88
2022/08/31 20:05:46;;;;;;;13.30;8.65;;;;;;;;;;6166220;23;20192;-89
2022/08/31 20:08:51;;;;;;;14.07;9.25;;;;;;;;;;6167214;23;20153;-87
2022/08/31 20:11:59;;;;;;;16.40;8.80;;;;;;;;;;6167980;23;20220;-88
2022/08/31 20:15:04;;;;;;;16.60;9.15;;;;;;;;;;6166530;23;20683;-87
2022/08/31 20:18:11;;;;;;;13.40;9.23;;;;;;;;;;6163950;23;20220;-88
2022/08/31 20:21:17;;;;;;;16.42;9.93;;;;;;;;;;6164496;23;20177;-88
2022/08/31 20:24:24;;;;;;;14.38;9.63;;;;;;;;;;6174709;23;20217;-88
2022/08/31 20:27:30;;;;;;;17.17;9.75;;;;;;;;;;6167528;23;20197;-90
2022/08/31 20:30:37;;;;;;;17.27;10.38;;;;;;;;;;6163955;23;20172;-89
2022/08/31 20:33:43;;;;;;;19.27;10.60;;;;;;;;;;6167095;23;20176;-87
2022/08/31 20:36:53;;;;;;;19.15;11.18;;;;;;;;;;6169102;23;20172;-89
2022/08/31 20:39:58;;;;;;;15.27;10.15;;;;;;;;;;6165251;23;20201;-88
2022/08/31 20:43:09;;;;;;;14.88;10.15;;;;;;;;;;6154650;23;20172;-88
2022/08/31 20:49:37;;;;;;;14.43;9.52;;;;;;;;;;6157716;23;20168;-86
2022/08/31 20:52:44;;;;;;;17.35;10.82;;;;;;;;;;6168443;23;20177;-85
2022/08/31 20:55:50;;;;;;;14.90;9.52;;;;;;;;;;6172362;23;20176;-87
2022/08/31 20:58:57;;;;;;;16.10;9.95;;;;;;;;;;6153736;23;20729;-89
2022/08/31 21:02:06;;;;;;;17.58;9.75;;;;;;;;;;6166815;23;20296;-88
2022/08/31 21:05:14;;;;;;;14.00;8.88;;;;;;;;;;6170896;23;20216;-87
2022/08/31 21:08:19;;;;;;;15.70;8.73;;;;;;;;;;6146733;23;20505;-88
2022/08/31 21:11:24;;;;;;;22.27;10.27;;;;;;;;;;6147181;23;20176;-88
2022/08/31 21:14:31;;;;;;;19.73;9.95;;;;;;;;;;6144585;23;20176;-89
2022/08/31 21:17:36;;;;;;;15.48;9.75;;;;;;;;;;6164323;23;20167;-88
2022/08/31 21:20:41;;;;;;;17.17;9.65;;;;;;;;;;6163438;23;20264;-87
2022/08/31 21:23:47;;;;;;;20.38;10.23;;;;;;;;;;6161175;23;20235;-86
2022/08/31 21:26:58;;;;;;;17.75;9.73;;;;;;;;;;6147237;23;20192;-89
2022/08/31 21:30:05;;;;;;;16.83;10.13;;;;;;;;;;6146502;23;20181;-90
2022/08/31 21:33:10;;;;;;;15.02;10.13;;;;;;;;;;6145911;23;20227;-88
2022/08/31 21:36:16;;;;;;;17.15;9.95;;;;;;;;;;6145633;23;20242;-89
2022/08/31 21:39:23;;;;;;;19.10;10.82;;;;;;;;;;6116165;23;20604;-89
2022/08/31 21:42:28;;;;;;;18.05;10.32;;;;;;;;;;6115732;23;20217;-89
2022/08/31 21:45:35;;;;;;;18.73;9.60;;;;;;;;;;6115169;23;20173;-87
2022/08/31 21:48:41;;;;;;;18.30;10.13;;;;;;;;;;6115922;23;20169;-88
2022/08/31 21:51:48;;;;;;;13.57;8.98;;;;;;;;;;6115795;23;20622;-87
2022/08/31 21:54:53;;;;;;;15.68;9.57;;;;;;;;;;6115031;23;20177;-87
2022/08/31 21:57:58;;;;;;;16.58;8.93;;;;;;;;;;6117687;23;20185;-87
2022/08/31 22:01:06;;;;;;;16.05;9.38;;;;;;;;;;6116241;23;20281;-87
2022/08/31 22:04:15;;;;;;;16.17;9.43;;;;;;;;;;6113626;23;20202;-88
2022/08/31 22:07:20;;;;;;;18.90;9.20;;;;;;;;;;6114554;23;20271;-88
2022/08/31 22:10:25;;;;;;;18.13;9.48;;;;;;;;;;6115396;23;20173;-89
2022/08/31 22:13:30;;;;;;;17.35;9.48;;;;;;;;;;6114061;23;20234;-87
2022/08/31 22:16:38;;;;;;;14.63;9.68;;;;;;;;;;6115196;23;20173;-88
2022/08/31 22:19:43;;;;;;;15.00;8.93;;;;;;;;;;6115593;23;20500;-87
2022/08/31 22:22:48;;;;;;;16.65;9.40;;;;;;;;;;6114811;23;20347;-89
2022/08/31 22:25:53;;;;;;;16.33;9.48;;;;;;;;;;6116948;23;20169;-89
2022/08/31 22:28:59;;;;;;;20.85;10.27;;;;;;;;;;6122369;23;20173;-89
2022/08/31 22:32:08;;;;;;;17.33;9.07;;;;;;;;;;6116061;23;20180;-88
2022/08/31 22:35:13;;;;;;;15.20;10.13;;;;;;;;;;6115616;23;20173;-89
2022/08/31 22:38:19;;;;;;;17.58;9.93;;;;;;;;;;6145157;23;20192;-90
2022/08/31 22:41:24;;;;;;;17.60;9.60;;;;;;;;;;6162468;23;20173;-88
2022/08/31 22:44:32;;;;;;;17.73;10.82;;;;;;;;;;6164792;23;20175;-88
2022/08/31 22:47:39;;;;;;;19.60;10.38;;;;;;;;;;6163590;23;20617;-87
2022/08/31 22:50:44;;;;;;;16.88;10.18;;;;;;;;;;6164818;23;20259;-88
2022/08/31 22:53:50;;;;;;;14.68;9.40;;;;;;;;;;6160051;23;20227;-89
2022/08/31 22:56:55;;;;;;;15.68;9.80;;;;;;;;;;6161151;23;20219;-88
2022/08/31 23:00:00;;;;;;;20.25;10.50;;;;;;;;;;6161014;23;20204;-88
2022/08/31 23:03:06;;;;;;;16.30;9.80;;;;;;;;;;6159111;23;20176;-88
2022/08/31 23:06:12;;;;;;;16.67;10.95;;;;;;;;;;6161896;23;20168;-89
2022/08/31 23:09:19;;;;;;;18.52;10.43;;;;;;;;;;6161532;23;20172;-88
2022/08/31 23:12:24;;;;;;;21.05;11.05;;;;;;;;;;6161128;23;20172;-88
2022/08/31 23:15:30;;;;;;;23.48;10.57;;;;;;;;;;6162108;23;20173;-89
2022/08/31 23:18:40;;;;;;;17.25;10.32;;;;;;;;;;6160107;23;20165;-88
2022/08/31 23:21:46;;;;;;;18.23;10.68;;;;;;;;;;6161630;23;20173;-88
2022/08/31 23:24:51;;;;;;;14.45;9.90;;;;;;;;;;6161235;23;20172;-88
2022/08/31 23:27:57;;;;;;;18.00;11.20;;;;;;;;;;6160606;23;20212;-88
2022/08/31 23:31:01;;;;;;;17.60;11.27;;;;;;;;;;6160665;23;20193;-87
2022/08/31 23:34:10;;;;;;;14.88;9.80;;;;;;;;;;6159789;23;20208;-87
2022/08/31 23:37:16;;;;;;;17.95;9.90;;;;;;;;;;6160648;23;20192;-90
2022/08/31 23:40:21;;;;;;;18.00;9.98;;;;;;;;;;6162145;23;20192;-87
2022/08/31 23:43:25;;;;;;;18.17;9.43;;;;;;;;;;6161162;23;20260;-90
2022/08/31 23:46:32;;;;;;;16.40;9.70;;;;;;;;;;6161440;23;20176;-87
2022/08/31 23:49:42;;;;;;;19.20;10.70;;;;;;;;;;6145713;23;20331;-88
2022/08/31 23:52:50;;;;;;;21.13;10.55;;;;;;;;;;6144603;23;20193;-88
2022/08/31 23:55:56;;;;;;;19.13;10.43;;;;;;;;;;6144755;23;20284;-90
2022/08/31 23:59:01;;;;;;;16.30;10.30;;;;;;;;;;6143561;23;20184;-86
